createdAt,value
2018-06-09T00:02:00.168Z,95122.73
2018-06-09T00:04:30.175Z,95117.33
2018-06-09T00:07:00.197Z,95121.38
2018-06-09T00:09:30.217Z,95118.37
2018-06-09T00:12:00.234Z,95112.97
2018-06-09T00:14:30.220Z,95111.77
2018-06-09T00:17:00.235Z,95110.77
2018-06-09T00:19:30.218Z,95106.25
2018-06-09T00:22:00.259Z,95107.25
2018-06-09T00:24:30.240Z,95101.84
2018-06-09T00:27:00.248Z,95105.67
2018-06-09T00:29:30.246Z,95107.36
2018-06-09T00:32:00.249Z,95110.06
2018-06-09T00:34:30.232Z,95099.77
2018-06-09T00:37:00.255Z,95108.48
2018-06-09T00:39:30.253Z,95096.98
2018-06-09T00:42:00.302Z,95102.66
2018-06-09T00:44:30.284Z,95107.25
2018-06-09T00:47:00.321Z,95103.27
2018-06-09T00:49:30.346Z,95105.97
2018-06-09T00:52:00.375Z,95110.91
2018-06-09T00:54:30.397Z,95107.44
2018-06-09T00:57:00.394Z,95106.75
2018-06-09T00:59:30.343Z,95107.52
2018-06-09T01:02:00.334Z,95114.86
2018-06-09T01:04:30.311Z,95106.52
2018-06-09T01:07:00.312Z,95108.41
2018-06-09T01:09:30.273Z,95099.84
2018-06-09T01:12:00.325Z,95113.50
2018-06-09T01:14:30.243Z,95119.67
2018-06-09T01:17:00.267Z,95116.63
2018-06-09T01:19:30.353Z,95113.94
2018-06-09T01:22:00.345Z,95114.44
2018-06-09T01:24:30.332Z,95113.73
2018-06-09T01:27:00.319Z,95116.67
2018-06-09T01:29:30.441Z,95119.84
2018-06-09T01:32:00.423Z,95119.84
2018-06-09T01:34:30.415Z,95114.12
2018-06-09T01:37:00.414Z,95116.63
2018-06-09T01:39:30.359Z,95116.05
2018-06-09T01:42:00.369Z,95120.34
2018-06-09T01:44:30.330Z,95125.97
2018-06-09T01:47:00.314Z,95130.98
2018-06-09T01:49:30.365Z,95129.91
2018-06-09T01:52:00.351Z,95135.81
2018-06-09T01:54:30.305Z,95130.30
2018-06-09T01:57:00.372Z,95131.41
2018-06-09T01:59:30.339Z,95123.92
2018-06-09T02:02:00.287Z,95128.02
2018-06-09T02:04:29.832Z,95119.45
2018-06-09T02:06:59.842Z,95120.02
2018-06-09T02:09:29.811Z,95126.55
2018-06-09T02:11:59.820Z,95125.00
2018-06-09T02:14:29.800Z,95121.73
2018-06-09T02:16:59.767Z,95128.88
2018-06-09T02:19:29.713Z,95121.03
2018-06-09T02:21:59.280Z,95118.10
2018-06-09T02:24:29.243Z,95120.06
2018-06-09T02:26:59.210Z,95114.44
2018-06-09T02:29:29.184Z,95110.99
2018-06-09T02:31:58.789Z,95115.05
2018-06-09T02:34:28.754Z,95111.84
2018-06-09T02:36:58.799Z,95112.66
2018-06-09T02:39:28.871Z,95116.71
2018-06-09T02:41:59.311Z,95119.41
2018-06-09T02:44:29.294Z,95126.16
2018-06-09T02:46:59.295Z,95121.88
2018-06-09T02:49:29.267Z,95123.57
2018-06-09T02:51:59.360Z,95124.45
2018-06-09T02:54:29.339Z,95118.02
2018-06-09T02:56:59.360Z,95125.06
2018-06-09T02:59:29.409Z,95116.46
2018-06-09T03:01:59.439Z,95120.52
2018-06-09T03:04:29.666Z,95118.36
2018-06-09T03:06:59.917Z,95121.33
2018-06-09T03:09:30.068Z,95111.38
2018-06-09T03:12:00.130Z,95114.65
2018-06-09T03:14:30.127Z,95119.61
2018-06-09T03:17:00.117Z,95121.23
2018-06-09T03:19:30.154Z,95108.58
2018-06-09T03:22:00.144Z,95118.30
2018-06-09T03:24:30.208Z,95111.38
2018-06-09T03:27:00.799Z,95113.34
2018-06-09T03:29:30.868Z,95115.63
2018-06-09T03:32:00.869Z,95119.98
2018-06-09T03:34:30.967Z,95121.97
2018-06-09T03:37:00.958Z,95114.69
2018-06-09T03:39:30.977Z,95115.05
2018-06-09T03:42:00.979Z,95116.06
2018-06-09T03:44:30.995Z,95118.08
2018-06-09T03:47:00.977Z,95131.00
2018-06-09T03:49:31.019Z,95127.50
2018-06-09T03:52:01.024Z,95130.70
2018-06-09T03:54:31.052Z,95132.05
2018-06-09T03:57:01.051Z,95123.75
2018-06-09T03:59:31.059Z,95133.64
2018-06-09T04:02:01.071Z,95136.58
2018-06-09T04:04:31.082Z,95144.43
2018-06-09T04:07:01.064Z,95148.52
2018-06-09T04:09:31.082Z,95154.17
2018-06-09T04:12:01.111Z,95154.75
2018-06-09T04:14:31.143Z,95156.58
2018-06-09T04:17:01.151Z,95159.78
2018-06-09T04:19:31.190Z,95163.83
2018-06-09T04:22:01.155Z,95158.88
2018-06-09T04:24:31.198Z,95158.55
2018-06-09T04:27:01.211Z,95162.81
2018-06-09T04:29:31.275Z,95156.33
2018-06-09T04:32:01.272Z,95159.80
2018-06-09T04:34:31.387Z,95162.14
2018-06-09T04:37:01.360Z,95165.01
2018-06-09T04:39:31.383Z,95166.30
2018-06-09T04:42:01.375Z,95168.86
2018-06-09T04:44:31.390Z,95168.72
2018-06-09T04:47:01.334Z,95170.03
2018-06-09T04:49:31.375Z,95156.69
2018-06-09T04:52:01.330Z,95153.03
2018-06-09T04:54:31.309Z,95155.05
2018-06-09T04:57:01.296Z,95150.91
2018-06-09T04:59:31.347Z,95157.55
2018-06-09T05:02:01.372Z,95162.07
2018-06-09T05:04:31.395Z,95158.17
2018-06-09T05:07:01.385Z,95153.09
2018-06-09T05:09:31.419Z,95161.01
2018-06-09T05:12:01.426Z,95158.22
2018-06-09T05:14:31.481Z,95165.61
2018-06-09T05:17:01.443Z,95168.19
2018-06-09T05:19:31.477Z,95174.10
2018-06-09T05:22:01.484Z,95172.30
2018-06-09T05:24:31.757Z,95172.83
2018-06-09T05:27:01.782Z,95186.23
2018-06-09T05:29:31.784Z,95192.23
2018-06-09T05:32:01.821Z,95199.17
2018-06-09T05:34:31.795Z,95199.67
2018-06-09T05:37:01.809Z,95203.59
2018-06-09T05:39:31.869Z,95207.48
2018-06-09T05:42:01.931Z,95202.02
2018-06-09T05:44:31.925Z,95197.47
2018-06-09T05:47:01.945Z,95201.83
2018-06-09T05:49:32.030Z,95195.06
2018-06-09T05:52:02.057Z,95196.50
2018-06-09T05:54:32.166Z,95198.22
2018-06-09T05:57:03.729Z,95197.26
2018-06-09T05:59:33.818Z,95196.74
2018-06-09T06:02:04.269Z,95203.75
2018-06-09T06:04:34.368Z,95200.59
2018-06-09T06:07:04.542Z,95203.20
2018-06-09T06:09:34.939Z,95203.75
2018-06-09T06:12:05.046Z,95201.58
2018-06-09T06:14:35.104Z,95198.17
2018-06-09T06:17:05.174Z,95194.05
2018-06-09T06:19:35.148Z,95200.94
2018-06-09T06:22:05.241Z,95200.27
2018-06-09T06:24:35.218Z,95207.84
2018-06-09T06:27:05.311Z,95202.45
2018-06-09T06:29:35.350Z,95202.06
2018-06-09T06:32:05.608Z,95202.74
2018-06-09T06:34:35.690Z,95205.88
2018-06-09T06:37:05.785Z,95213.73
2018-06-09T06:39:35.918Z,95216.77
2018-06-09T06:42:06.054Z,95219.81
2018-06-09T06:44:36.060Z,95220.06
2018-06-09T06:47:06.308Z,95215.60
2018-06-09T06:49:36.366Z,95215.72
2018-06-09T06:52:06.613Z,95212.67
2018-06-09T06:54:36.672Z,95212.88
2018-06-09T06:57:06.706Z,95214.10
2018-06-09T06:59:36.669Z,95228.50
2018-06-09T07:02:07.117Z,95237.61
2018-06-09T07:04:37.097Z,95236.11
2018-06-09T07:07:06.723Z,95232.67
2018-06-09T07:09:36.718Z,95236.27
2018-06-09T07:12:06.405Z,95231.87
2018-06-09T07:14:36.362Z,95236.35
2018-06-09T07:17:06.442Z,95233.58
2018-06-09T07:19:36.511Z,95233.43
2018-06-09T07:22:06.667Z,95231.81
2018-06-09T07:24:36.643Z,95241.51
2018-06-09T07:27:06.321Z,95241.58
2018-06-09T07:29:36.383Z,95233.56
2018-06-09T07:32:06.090Z,95231.09
2018-06-09T07:34:35.710Z,95229.41
2018-06-09T07:37:05.784Z,95234.95
2018-06-09T07:39:35.792Z,95230.30
2018-06-09T07:42:05.848Z,95235.73
2018-06-09T07:44:35.859Z,95233.27
2018-06-09T07:47:05.937Z,95225.30
2018-06-09T07:49:35.967Z,95227.13
2018-06-09T07:52:06.026Z,95224.63
2018-06-09T07:54:36.120Z,95228.07
2018-06-09T07:57:06.210Z,95230.96
2018-06-09T07:59:36.272Z,95221.52
2018-06-09T08:02:06.347Z,95218.73
2018-06-09T08:04:36.380Z,95224.76
2018-06-09T08:07:06.431Z,95221.09
2018-06-09T08:09:36.484Z,95218.89
2018-06-09T08:12:06.655Z,95221.14
2018-06-09T08:14:36.677Z,95214.94
2018-06-09T08:17:06.694Z,95222.76
2018-06-09T08:19:36.780Z,95207.51
2018-06-09T08:22:06.814Z,95211.16
2018-06-09T08:24:36.855Z,95216.46
2018-06-09T08:27:06.928Z,95216.74
2018-06-09T08:29:36.991Z,95209.87
2018-06-09T08:32:07.146Z,95208.20
2018-06-09T08:34:38.122Z,95210.30
2018-06-09T08:37:08.132Z,95217.48
2018-06-09T08:39:38.161Z,95218.53
2018-06-09T08:42:08.231Z,95210.44
2018-06-09T08:44:38.354Z,95218.57
2018-06-09T08:47:08.451Z,95213.20
2018-06-09T08:49:38.509Z,95215.10
2018-06-09T08:52:08.624Z,95215.44
2018-06-09T08:54:38.765Z,95226.18
2018-06-09T08:57:08.747Z,95213.53
2018-06-09T08:59:38.781Z,95216.97
2018-06-09T09:02:08.827Z,95219.30
2018-06-09T09:04:38.857Z,95215.57
2018-06-09T09:07:08.847Z,95215.37
2018-06-09T09:09:38.922Z,95214.22
2018-06-09T09:12:08.953Z,95212.19
2018-06-09T09:14:39.010Z,95216.41
2018-06-09T09:17:09.041Z,95217.39
2018-06-09T09:19:39.109Z,95214.13
2018-06-09T09:22:09.095Z,95203.87
2018-06-09T09:24:39.137Z,95213.06
2018-06-09T09:27:09.435Z,95209.66
2018-06-09T09:29:39.587Z,95213.70
2018-06-09T09:32:09.607Z,95215.42
2018-06-09T09:34:39.682Z,95215.28
2018-06-09T09:37:09.736Z,95210.55
2018-06-09T09:39:39.790Z,95210.08
2018-06-09T09:42:09.466Z,95214.75
2018-06-09T09:44:39.546Z,95208.02
2018-06-09T09:47:09.574Z,95205.74
2018-06-09T09:49:40.152Z,95198.84
2018-06-09T09:52:10.227Z,95198.63
2018-06-09T09:54:41.621Z,95201.21
2018-06-09T09:57:11.705Z,95194.08
2018-06-09T09:59:41.766Z,95198.83
2018-06-09T10:02:11.849Z,95194.24
2018-06-09T10:04:42.423Z,95202.23
2018-06-09T10:07:12.559Z,95202.02
2018-06-09T10:09:42.659Z,95201.59
2018-06-09T10:12:12.666Z,95192.32
2018-06-09T10:14:42.722Z,95195.65
2018-06-09T10:17:12.717Z,95199.30
2018-06-09T10:19:42.932Z,95197.92
2018-06-09T10:22:12.992Z,95197.38
2018-06-09T10:24:43.695Z,95201.59
2018-06-09T10:27:13.696Z,95199.53
2018-06-09T10:29:43.687Z,95193.94
2018-06-09T10:32:13.683Z,95195.87
2018-06-09T10:34:43.833Z,95192.47
2018-06-09T10:37:13.836Z,95190.63
2018-06-09T10:39:43.845Z,95194.27
2018-06-09T10:42:13.932Z,95187.88
2018-06-09T10:44:44.229Z,95184.58
2018-06-09T10:47:13.900Z,95022.00
2018-06-09T10:49:44.027Z,95180.34
2018-06-09T10:52:14.094Z,95179.88
2018-06-09T10:54:44.160Z,95182.39
2018-06-09T10:57:14.220Z,95179.98
2018-06-09T10:59:44.247Z,95148.41
2018-06-09T11:02:14.260Z,95185.77
2018-06-09T11:04:44.284Z,95188.55
2018-06-09T11:07:14.370Z,95184.77
2018-06-09T11:09:44.425Z,95187.95
2018-06-09T11:12:14.467Z,95175.42
2018-06-09T11:14:44.128Z,95184.69
2018-06-09T11:17:14.306Z,95186.47
2018-06-09T11:19:44.392Z,95176.07
2018-06-09T11:22:14.504Z,95179.45
2018-06-09T11:24:44.562Z,95180.59
2018-06-09T11:27:14.732Z,95177.45
2018-06-09T11:29:44.806Z,95167.97
2018-06-09T11:32:14.860Z,95169.37
2018-06-09T11:34:44.902Z,95163.45
2018-06-09T11:37:15.034Z,95163.47
2018-06-09T11:39:45.078Z,95167.70
2018-06-09T11:42:15.144Z,95156.44
2018-06-09T11:44:47.706Z,95153.24
2018-06-09T11:47:19.273Z,95160.97
2018-06-09T11:49:49.587Z,95161.86
2018-06-09T11:52:20.378Z,95156.89
2018-06-09T11:54:50.405Z,95161.32
2018-06-09T11:57:20.519Z,95154.63
2018-06-09T11:59:50.522Z,95152.72
2018-06-09T12:02:20.548Z,95160.80
2018-06-09T12:04:50.527Z,95157.13
2018-06-09T12:07:20.616Z,95163.73
2018-06-09T12:09:50.625Z,95174.43
2018-06-09T12:12:20.691Z,95180.42
2018-06-09T12:14:50.774Z,95172.09
2018-06-09T12:17:20.922Z,95160.92
2018-06-09T12:19:50.867Z,95159.06
2018-06-09T12:22:20.979Z,95156.52
2018-06-09T12:24:51.024Z,95162.63
2018-06-09T12:27:21.108Z,95164.19
2018-06-09T12:29:52.534Z,95158.87
2018-06-09T12:32:22.810Z,95156.38
2018-06-09T12:34:52.888Z,95161.68
2018-06-09T12:37:22.937Z,95156.27
2018-06-09T12:39:52.951Z,95166.56
2018-06-09T12:42:23.387Z,95162.55
2018-06-09T12:44:53.602Z,95174.36
2018-06-09T12:47:23.642Z,95173.03
2018-06-09T12:49:53.281Z,95170.05
2018-06-09T12:52:23.302Z,95173.39
2018-06-09T12:54:53.349Z,95164.39
2018-06-09T12:57:24.127Z,95152.23
2018-06-09T12:59:54.166Z,95151.78
2018-06-09T13:02:24.281Z,95147.98
2018-06-09T13:04:53.866Z,95144.50
2018-06-09T13:07:24.000Z,95143.39
2018-06-09T13:09:53.671Z,95140.93
2018-06-09T13:12:23.691Z,95133.91
2018-06-09T13:14:53.927Z,95127.58
2018-06-09T13:17:24.203Z,95125.27
2018-06-09T13:19:53.845Z,95129.13
2018-06-09T13:22:24.170Z,95128.58
2018-06-09T13:24:54.365Z,95128.71
2018-06-09T13:27:24.407Z,95134.16
2018-06-09T13:29:55.008Z,95144.70
2018-06-09T13:32:25.248Z,95141.77
2018-06-09T13:34:55.639Z,95152.40
2018-06-09T13:37:25.797Z,95150.91
2018-06-09T13:39:55.863Z,95145.37
2018-06-09T13:42:26.228Z,95139.69
2018-06-09T13:44:56.387Z,95125.22
2018-06-09T13:47:26.503Z,95121.63
2018-06-09T13:49:56.533Z,95113.55
2018-06-09T13:52:26.736Z,95107.97
2018-06-09T13:54:57.030Z,95104.20
2018-06-09T13:57:27.531Z,95120.36
2018-06-09T13:59:57.595Z,95136.20
2018-06-09T14:02:27.898Z,95143.79
2018-06-09T14:04:58.488Z,95147.23
2018-06-09T14:07:28.590Z,95142.32
2018-06-09T14:09:58.720Z,95139.34
2018-06-09T14:12:29.079Z,95144.03
2018-06-09T14:14:59.270Z,95146.37
2018-06-09T14:17:29.167Z,95144.30
2018-06-09T14:19:59.213Z,95146.25
2018-06-09T14:22:29.666Z,95154.06
2018-06-09T14:24:59.905Z,95156.13
2018-06-09T14:27:30.188Z,95150.05
2018-06-09T14:30:00.285Z,95151.95
2018-06-09T14:32:30.430Z,95143.24
2018-06-09T14:35:00.591Z,95140.16
2018-06-09T14:37:30.769Z,95140.13
2018-06-09T14:40:00.846Z,95135.67
2018-06-09T14:42:31.054Z,95131.45
2018-06-09T14:45:02.121Z,95124.44
2018-06-09T14:47:32.393Z,95112.61
2018-06-09T14:50:02.448Z,95106.02
2018-06-09T14:52:32.754Z,95108.44
2018-06-09T14:55:02.489Z,95103.52
2018-06-09T14:57:32.841Z,95103.69
2018-06-09T15:00:02.875Z,95103.39
2018-06-09T15:02:33.213Z,95095.64
2018-06-09T15:05:03.526Z,95085.89
2018-06-09T15:07:33.767Z,95089.35
2018-06-09T15:10:04.142Z,95090.80
2018-06-09T15:12:33.986Z,95088.52
2018-06-09T15:15:04.219Z,95087.02
2018-06-09T15:17:34.342Z,95080.19
2018-06-09T15:20:04.525Z,95084.69
2018-06-09T15:22:34.524Z,95072.82
2018-06-09T15:25:05.521Z,95066.46
2018-06-09T15:27:35.988Z,95075.76
2018-06-09T15:30:06.103Z,95088.92
2018-06-09T15:32:37.652Z,95090.55
2018-06-09T15:35:08.041Z,95098.27
2018-06-09T15:37:38.284Z,95089.24
2018-06-09T15:40:08.481Z,95091.23
2018-06-09T15:42:38.927Z,95084.30
2018-06-09T15:45:09.191Z,95077.17
2018-06-09T15:47:39.442Z,95083.88
2018-06-09T15:50:09.892Z,95092.74
2018-06-09T15:52:39.774Z,95102.28
2018-06-09T16:07:49.601Z,95143.37
2018-06-09T16:10:19.740Z,95140.98
2018-06-09T16:12:49.865Z,95146.84
2018-06-09T16:15:19.976Z,95144.71
2018-06-09T16:17:50.088Z,95141.69
2018-06-09T16:20:20.154Z,95142.12
2018-06-09T16:22:50.554Z,95141.75
2018-06-09T16:25:20.738Z,95143.77
2018-06-09T16:27:50.810Z,95146.67
2018-06-09T16:30:20.935Z,95155.69
2018-06-09T16:32:50.988Z,95153.91
2018-06-09T16:35:21.174Z,95160.27
2018-06-09T16:37:51.369Z,95162.55
2018-06-09T16:40:21.421Z,95161.52
2018-06-09T16:42:51.449Z,95167.95
2018-06-09T16:45:21.529Z,95166.33
2018-06-09T16:47:51.535Z,95167.34
2018-06-09T16:50:21.758Z,95173.63
2018-06-09T16:52:51.729Z,95167.09
2018-06-09T16:55:22.125Z,95171.64
2018-06-09T16:57:52.381Z,95183.98
2018-06-09T17:00:22.506Z,95184.34
2018-06-09T17:02:52.548Z,95186.39
2018-06-09T17:05:23.205Z,95185.27
2018-06-09T17:07:53.279Z,95186.06
2018-06-09T17:10:23.414Z,95182.38
2018-06-09T17:12:53.633Z,95184.59
2018-06-09T17:15:23.874Z,95181.50
2018-06-09T17:17:53.999Z,95184.93
2018-06-09T17:20:24.093Z,95183.40
2018-06-09T17:22:54.348Z,95185.61
2018-06-09T17:25:24.728Z,95186.97
2018-06-09T17:27:55.066Z,95191.25
2018-06-09T17:30:25.172Z,95192.30
2018-06-09T17:32:55.254Z,95188.02
2018-06-09T17:35:25.509Z,95191.71
2018-06-09T17:37:55.724Z,95180.80
2018-06-09T17:40:26.260Z,95169.88
2018-06-09T17:42:56.369Z,95175.34
2018-06-09T17:45:26.531Z,95170.30
2018-06-09T17:47:56.846Z,95158.61
2018-06-09T17:50:26.922Z,95149.68
2018-06-09T17:52:56.939Z,95144.09
2018-06-09T17:55:27.685Z,95142.19
2018-06-09T17:57:57.868Z,95141.53
2018-06-09T18:00:27.900Z,95147.45
2018-06-09T18:02:57.963Z,95149.78
2018-06-09T18:05:28.162Z,95149.88
2018-06-09T18:07:58.231Z,95152.81
2018-06-09T18:10:28.920Z,95156.92
2018-06-09T18:12:59.258Z,95162.42
2018-06-09T18:15:29.355Z,95163.64
2018-06-09T18:17:59.405Z,95161.41
2018-06-09T18:20:30.088Z,95177.75
2018-06-09T18:23:00.301Z,95175.76
2018-06-09T18:25:31.026Z,95188.25
2018-06-09T18:28:01.073Z,95193.72
2018-06-09T18:30:31.171Z,95190.11
2018-06-09T18:33:01.907Z,95188.84
2018-06-09T18:35:31.998Z,95181.94
2018-06-09T18:38:02.050Z,95176.00
2018-06-09T18:40:32.144Z,95171.48
2018-06-09T18:43:02.175Z,95169.19
2018-06-09T18:45:32.241Z,95167.59
2018-06-09T18:48:02.286Z,95170.75
2018-06-09T18:50:32.339Z,95174.80
2018-06-09T18:53:02.381Z,95174.53
2018-06-09T18:55:32.442Z,95169.98
2018-06-09T18:58:02.543Z,95168.00
2018-06-09T19:00:32.666Z,95161.19
2018-06-09T19:03:02.672Z,95157.41
2018-06-09T19:05:32.814Z,95157.17
2018-06-09T19:08:03.033Z,95157.58
2018-06-09T19:10:33.117Z,95161.23
2018-06-09T19:13:03.391Z,95155.88
2018-06-09T19:15:33.524Z,95162.83
2018-06-09T19:18:03.614Z,95158.67
2018-06-09T19:20:33.700Z,95169.00
2018-06-09T19:23:03.744Z,95166.70
2018-06-09T19:25:33.937Z,95176.66
2018-06-09T19:28:04.031Z,95184.52
2018-06-09T19:30:34.109Z,95190.69
2018-06-09T19:33:04.277Z,95186.55
2018-06-09T19:35:34.301Z,95196.83
2018-06-09T19:38:04.705Z,95198.17
2018-06-09T19:40:34.897Z,95197.37
2018-06-09T19:43:04.976Z,95199.45
2018-06-09T19:45:35.069Z,95201.62
2018-06-09T19:48:05.268Z,95203.82
2018-06-09T19:50:35.381Z,95203.37
2018-06-09T19:53:05.591Z,95217.20
2018-06-09T19:55:35.646Z,95220.50
2018-06-09T19:58:06.167Z,95222.44
2018-06-09T20:00:36.286Z,95230.67
2018-06-09T20:03:06.652Z,95234.23
2018-06-09T20:05:36.694Z,95229.14
2018-06-09T20:08:06.865Z,95230.30
2018-06-09T20:10:36.915Z,95235.25
2018-06-09T20:13:07.194Z,95239.30
2018-06-09T20:15:37.304Z,95243.91
2018-06-09T20:18:07.545Z,95244.77
2018-06-09T20:20:37.743Z,95259.13
2018-06-09T20:23:08.299Z,95262.42
2018-06-09T20:25:38.427Z,95263.50
2018-06-09T20:28:09.061Z,95256.08
2018-06-09T20:30:39.199Z,95251.78
2018-06-09T20:33:09.345Z,95252.87
2018-06-09T20:35:39.454Z,95253.06
2018-06-09T20:38:09.624Z,95253.88
2018-06-09T20:40:39.846Z,95254.88
2018-06-09T20:43:10.793Z,95248.69
2018-06-09T20:45:40.900Z,95256.80
2018-06-09T20:48:11.024Z,95253.29
2018-06-09T20:50:41.168Z,95260.55
2018-06-09T20:53:11.345Z,95247.84
2018-06-09T20:55:43.667Z,95250.63
2018-06-09T20:58:13.489Z,95253.33
2018-06-09T21:00:43.946Z,95240.07
2018-06-09T21:03:14.089Z,95246.22
2018-06-09T21:05:44.461Z,95244.13
2018-06-09T21:08:14.668Z,95240.16
2018-06-09T21:10:44.807Z,95234.64
2018-06-09T21:13:14.948Z,95233.63
2018-06-09T21:15:44.959Z,95230.39
2018-06-09T21:18:15.353Z,95235.80
2018-06-09T21:20:45.535Z,95234.17
2018-06-09T21:23:16.422Z,95225.80
2018-06-09T21:25:46.486Z,95225.59
2018-06-09T21:28:21.704Z,95223.74
2018-06-09T21:30:57.403Z,95219.34
2018-06-09T21:33:49.267Z,95213.94
2018-06-09T21:36:24.468Z,95216.64
2018-06-09T21:39:00.811Z,95212.89
2018-06-09T21:41:36.171Z,95215.79
2018-06-09T21:44:11.507Z,95213.09
2018-06-09T21:46:47.472Z,95207.94
2018-06-09T21:49:18.697Z,95212.35
2018-06-09T21:51:48.715Z,95205.09
2018-06-09T21:54:18.823Z,95212.42
2018-06-09T21:56:48.872Z,95212.42
2018-06-09T21:59:18.955Z,95208.45
2018-06-09T22:01:49.071Z,95213.00
2018-06-09T22:04:19.136Z,95218.25
2018-06-09T22:06:49.183Z,95227.45
2018-06-09T22:09:19.804Z,95232.69
2018-06-09T22:11:49.829Z,95235.97
2018-06-09T22:14:20.088Z,95237.86
2018-06-09T22:16:50.283Z,95229.72
2018-06-09T22:19:20.349Z,95233.77
2018-06-09T22:21:50.391Z,95235.09
2018-06-09T22:24:21.067Z,95233.94
2018-06-09T22:26:51.145Z,95232.01
2018-06-09T22:29:21.280Z,95243.94
2018-06-09T22:31:51.323Z,95249.03
2018-06-09T22:34:21.505Z,95251.98
2018-06-09T22:36:51.559Z,95258.45
2018-06-09T22:39:21.649Z,95259.55
2018-06-09T22:41:51.774Z,95266.57
2018-06-09T22:44:21.936Z,95268.09
2018-06-09T22:46:52.435Z,95269.95
2018-06-09T22:49:22.479Z,95273.64
2018-06-09T22:51:52.554Z,95273.77
2018-06-09T22:54:22.202Z,95269.69
2018-06-09T22:56:52.269Z,95269.92
2018-06-09T22:59:22.357Z,95262.08
2018-06-09T23:01:52.414Z,95269.08
2018-06-09T23:04:22.507Z,95271.58
2018-06-09T23:06:52.581Z,95264.55
2018-06-09T23:09:22.633Z,95267.86
2018-06-09T23:11:52.664Z,95262.73
2018-06-09T23:14:22.769Z,95264.22
2018-06-09T23:16:52.840Z,95260.53
2018-06-09T23:19:22.843Z,95271.11
2018-06-09T23:21:52.940Z,95272.77
2018-06-09T23:24:23.017Z,95264.95
2018-06-09T23:26:53.139Z,95269.05
2018-06-09T23:29:23.505Z,95270.97
2018-06-09T23:31:53.568Z,95275.02
2018-06-09T23:34:23.651Z,95282.34
2018-06-09T23:36:53.751Z,95279.64
2018-06-09T23:39:23.751Z,95282.34
2018-06-09T23:41:53.809Z,95276.10
2018-06-09T23:44:23.880Z,95270.42
2018-06-09T23:46:53.964Z,95263.81
2018-06-09T23:49:24.028Z,95268.00
2018-06-09T23:51:54.150Z,95262.42
2018-06-09T23:54:24.232Z,95259.59
2018-06-09T23:56:54.337Z,95260.50
2018-06-09T23:59:24.427Z,95252.45
